createdAt,value
2019-02-24T00:02:05.186Z,8.20
2019-02-24T00:04:33.458Z,7.90
2019-02-24T00:07:01.745Z,9.87
2019-02-24T00:09:30.024Z,8.10
2019-02-24T00:11:58.314Z,9.47
2019-02-24T00:14:26.590Z,9.93
2019-02-24T00:16:55.152Z,11.30
2019-02-24T00:19:23.669Z,7.53
2019-02-24T00:21:51.967Z,8.53
2019-02-24T00:24:20.243Z,8.90
2019-02-24T00:26:48.562Z,8.77
2019-02-24T00:29:16.842Z,8.90
2019-02-24T00:31:45.382Z,9.27
2019-02-24T00:34:13.688Z,8.77
2019-02-24T00:36:41.964Z,7.57
2019-02-24T00:39:10.254Z,8.37
2019-02-24T00:41:38.532Z,8.03
2019-02-24T00:44:06.830Z,11.73
2019-02-24T00:46:35.108Z,8.23
2019-02-24T00:49:03.408Z,9.80
2019-02-24T00:51:31.690Z,10.03
2019-02-24T00:53:59.990Z,9.07
2019-02-24T00:56:28.260Z,8.57
2019-02-24T00:58:56.792Z,8.60
2019-02-24T01:01:25.082Z,8.30
2019-02-24T01:03:53.643Z,10.30
2019-02-24T01:06:21.935Z,8.90
2019-02-24T01:08:50.472Z,9.77
2019-02-24T01:11:18.749Z,8.97
2019-02-24T01:13:47.051Z,9.93
2019-02-24T01:16:15.334Z,9.37
2019-02-24T01:18:43.630Z,10.33
2019-02-24T01:21:11.911Z,10.90
2019-02-24T01:23:40.475Z,7.93
2019-02-24T01:26:08.762Z,10.57
2019-02-24T01:28:37.291Z,10.10
2019-02-24T01:31:05.587Z,9.23
2019-02-24T01:33:33.860Z,8.80
2019-02-24T01:36:02.154Z,7.83
2019-02-24T01:38:30.428Z,8.57
2019-02-24T01:40:58.723Z,8.63
2019-02-24T01:43:26.999Z,9.63
2019-02-24T01:45:55.288Z,8.30
2019-02-24T01:48:23.824Z,8.40
2019-02-24T01:50:52.111Z,7.47
2019-02-24T01:53:20.635Z,7.53
2019-02-24T01:55:48.926Z,8.30
2019-02-24T01:58:17.447Z,8.47
2019-02-24T02:00:45.996Z,8.90
2019-02-24T02:03:14.266Z,8.70
2019-02-24T02:05:42.570Z,8.10
2019-02-24T02:08:10.832Z,7.90
2019-02-24T02:10:39.370Z,8.30
2019-02-24T02:13:07.720Z,8.90
2019-02-24T02:15:36.017Z,9.43
2019-02-24T02:18:04.297Z,10.33
2019-02-24T02:20:32.666Z,7.37
2019-02-24T02:23:01.020Z,8.23
2019-02-24T02:25:29.545Z,7.47
2019-02-24T02:27:57.843Z,8.37
2019-02-24T02:30:26.131Z,7.67
2019-02-24T02:32:54.434Z,8.17
2019-02-24T02:35:25.684Z,8.03
2019-02-24T02:37:54.237Z,7.50
2019-02-24T02:40:22.518Z,8.17
2019-02-24T02:42:51.059Z,7.90
2019-02-24T02:45:19.340Z,6.90
2019-02-24T02:47:47.878Z,8.40
2019-02-24T02:50:16.162Z,7.80
2019-02-24T02:52:44.455Z,8.07
2019-02-24T02:55:12.737Z,7.57
2019-02-24T02:57:41.035Z,7.13
2019-02-24T03:00:29.888Z,7.70
2019-02-24T03:02:58.570Z,7.40
2019-02-24T03:05:26.802Z,8.63
2019-02-24T03:07:59.161Z,7.13
2019-02-24T03:10:27.440Z,7.00
2019-02-24T03:12:55.740Z,7.77
2019-02-24T03:15:24.088Z,7.23
2019-02-24T03:17:53.298Z,6.20
2019-02-24T03:20:21.572Z,6.80
2019-02-24T03:22:49.874Z,7.60
2019-02-24T03:25:18.158Z,8.80
2019-02-24T03:27:46.680Z,7.20
2019-02-24T03:30:14.983Z,7.20
2019-02-24T03:32:43.524Z,8.63
2019-02-24T03:35:11.804Z,8.73
2019-02-24T03:37:40.101Z,7.20
2019-02-24T03:40:08.951Z,6.13
2019-02-24T03:42:37.232Z,7.13
2019-02-24T03:45:08.623Z,5.87
2019-02-24T03:47:36.900Z,7.70
2019-02-24T03:50:08.078Z,6.43
2019-02-24T03:52:36.358Z,7.03
2019-02-24T03:55:05.627Z,7.87
2019-02-24T03:57:34.154Z,6.80
2019-02-24T04:00:02.515Z,7.23
2019-02-24T04:02:31.053Z,9.00
2019-02-24T04:04:59.352Z,7.50
2019-02-24T04:07:27.641Z,7.00
2019-02-24T04:09:55.933Z,7.47
2019-02-24T04:12:24.213Z,7.23
2019-02-24T04:14:52.747Z,6.87
2019-02-24T04:17:21.014Z,6.53
2019-02-24T04:19:49.291Z,7.83
2019-02-24T04:22:17.856Z,6.90
2019-02-24T04:24:46.130Z,8.30
2019-02-24T04:27:14.662Z,6.77
2019-02-24T04:29:42.933Z,6.73
2019-02-24T04:32:11.228Z,6.70
2019-02-24T04:34:39.749Z,7.03
2019-02-24T04:37:08.056Z,8.03
2019-02-24T04:39:36.580Z,7.47
2019-02-24T04:42:04.868Z,8.67
2019-02-24T04:44:33.140Z,7.93
2019-02-24T04:47:01.688Z,7.03
2019-02-24T04:49:29.971Z,7.80
2019-02-24T04:51:58.507Z,8.70
2019-02-24T04:54:26.785Z,9.30
2019-02-24T04:56:55.074Z,7.87
2019-02-24T04:59:23.353Z,7.17
2019-02-24T05:01:51.655Z,7.50
2019-02-24T05:04:19.918Z,6.73
2019-02-24T05:06:48.204Z,8.33
2019-02-24T05:09:16.474Z,7.80
2019-02-24T05:11:45.031Z,7.23
2019-02-24T05:14:13.313Z,7.57
2019-02-24T05:16:41.835Z,9.27
2019-02-24T05:19:10.135Z,7.90
2019-02-24T05:21:38.420Z,8.00
2019-02-24T05:24:06.716Z,7.30
2019-02-24T05:26:35.249Z,9.80
2019-02-24T05:29:03.785Z,7.17
2019-02-24T05:31:32.060Z,6.70
2019-02-24T05:34:00.350Z,6.70
2019-02-24T05:36:28.628Z,9.23
2019-02-24T05:38:57.179Z,8.13
2019-02-24T05:41:25.461Z,6.93
2019-02-24T05:43:53.756Z,8.50
2019-02-24T05:46:22.031Z,7.73
2019-02-24T05:48:50.564Z,6.37
2019-02-24T05:51:18.849Z,6.73
2019-02-24T05:53:47.141Z,7.53
2019-02-24T05:56:15.417Z,6.87
2019-02-24T05:58:43.964Z,9.37
2019-02-24T06:01:12.240Z,7.23
2019-02-24T06:03:40.516Z,8.60
2019-02-24T06:06:09.059Z,9.10
2019-02-24T06:08:37.341Z,7.90
2019-02-24T06:11:05.713Z,11.37
2019-02-24T06:13:33.993Z,7.77
2019-02-24T06:16:02.281Z,8.33
2019-02-24T06:18:30.556Z,7.93
2019-02-24T06:20:58.846Z,7.03
2019-02-24T06:23:27.137Z,7.93
2019-02-24T06:25:55.428Z,7.63
2019-02-24T06:28:23.697Z,6.27
2019-02-24T06:30:51.998Z,6.40
2019-02-24T06:33:20.279Z,6.30
2019-02-24T06:35:48.577Z,8.30
2019-02-24T06:38:16.853Z,7.53
2019-02-24T06:40:45.149Z,7.57
2019-02-24T06:43:13.426Z,6.77
2019-02-24T06:45:42.054Z,8.47
2019-02-24T06:48:10.332Z,6.03
2019-02-24T06:50:46.087Z,7.13
2019-02-24T06:53:14.380Z,32.70
2019-02-24T06:55:42.918Z,28.10
2019-02-24T06:58:11.464Z,23.10
2019-02-24T07:00:39.763Z,15.97
2019-02-24T07:03:08.309Z,17.80
2019-02-24T07:05:36.877Z,10.33
2019-02-24T07:08:05.181Z,13.77
2019-02-24T07:10:33.464Z,17.43
2019-02-24T07:13:01.753Z,9.50
2019-02-24T07:15:30.028Z,11.93
2019-02-24T07:17:58.322Z,12.40
2019-02-24T07:20:26.606Z,19.43
2019-02-24T07:22:54.919Z,34.13
2019-02-24T07:25:23.194Z,30.00
2019-02-24T07:27:51.491Z,19.47
2019-02-24T07:30:23.466Z,12.97
2019-02-24T07:32:50.048Z,8.07
2019-02-24T07:35:18.342Z,6.43
2019-02-24T07:37:46.886Z,7.47
2019-02-24T07:40:15.444Z,10.63
2019-02-24T07:42:43.734Z,8.83
2019-02-24T07:45:12.109Z,9.10
2019-02-24T07:47:40.651Z,7.97
2019-02-24T07:50:10.057Z,5.93
2019-02-24T07:52:38.436Z,5.97
2019-02-24T07:55:07.378Z,6.73
2019-02-24T07:57:36.064Z,4.83
2019-02-24T08:00:07.009Z,5.00
2019-02-24T08:02:35.779Z,5.80
2019-02-24T08:05:06.528Z,6.30
2019-02-24T08:07:35.274Z,6.67
2019-02-24T08:10:05.540Z,7.10
2019-02-24T08:12:34.313Z,6.67
2019-02-24T08:15:02.720Z,5.50
2019-02-24T08:17:31.033Z,7.97
2019-02-24T08:19:59.399Z,5.03
2019-02-24T08:22:28.130Z,5.17
2019-02-24T08:24:56.596Z,6.93
2019-02-24T08:27:25.167Z,6.63
2019-02-24T08:29:53.484Z,6.17
2019-02-24T08:32:22.262Z,5.67
2019-02-24T08:34:50.763Z,5.67
2019-02-24T08:37:19.402Z,5.37
2019-02-24T08:39:48.099Z,5.27
2019-02-24T08:42:16.472Z,4.67
2019-02-24T08:44:44.750Z,4.83
2019-02-24T08:47:13.040Z,5.23
2019-02-24T08:49:41.317Z,5.40
2019-02-24T08:52:09.879Z,4.97
2019-02-24T08:54:38.397Z,5.33
2019-02-24T08:57:06.776Z,5.40
2019-02-24T08:59:35.092Z,4.77
2019-02-24T09:02:03.470Z,4.60
2019-02-24T09:04:32.043Z,5.00
2019-02-24T09:07:00.577Z,6.63
2019-02-24T09:09:28.870Z,4.53
2019-02-24T09:11:57.183Z,4.83
2019-02-24T09:14:25.489Z,4.23
2019-02-24T09:16:54.006Z,4.77
2019-02-24T09:19:22.633Z,5.23
2019-02-24T09:21:50.937Z,4.20
2019-02-24T09:24:19.259Z,4.40
2019-02-24T09:26:47.548Z,5.60
2019-02-24T09:29:15.835Z,6.13
2019-02-24T09:31:44.132Z,4.90
2019-02-24T09:34:12.426Z,4.97
2019-02-24T09:36:40.721Z,4.60
2019-02-24T09:39:09.424Z,4.60
2019-02-24T09:41:37.724Z,5.73
2019-02-24T09:44:06.024Z,8.60
2019-02-24T09:46:34.322Z,4.17
2019-02-24T09:49:02.601Z,4.53
2019-02-24T09:51:30.902Z,5.53
2019-02-24T09:53:59.453Z,4.03
2019-02-24T09:56:28.018Z,7.77
2019-02-24T09:58:56.310Z,4.20
2019-02-24T10:01:24.624Z,4.63
2019-02-24T10:03:53.195Z,5.10
2019-02-24T10:06:21.510Z,4.53
2019-02-24T10:08:49.811Z,4.87
2019-02-24T10:11:18.089Z,3.37
2019-02-24T10:13:46.715Z,4.10
2019-02-24T10:16:15.266Z,3.67
2019-02-24T10:18:43.859Z,4.20
2019-02-24T10:21:12.132Z,5.13
2019-02-24T10:23:40.441Z,4.10
2019-02-24T10:26:08.725Z,4.17
2019-02-24T10:28:37.102Z,3.67
2019-02-24T10:31:05.402Z,4.00
2019-02-24T10:33:33.704Z,4.30
2019-02-24T10:36:02.238Z,5.33
2019-02-24T10:38:30.636Z,3.40
2019-02-24T10:40:59.174Z,4.20
2019-02-24T10:43:27.455Z,4.63
2019-02-24T10:45:55.834Z,3.70
2019-02-24T10:48:24.074Z,4.43
2019-02-24T10:50:52.369Z,3.63
2019-02-24T10:53:20.901Z,3.90
2019-02-24T10:55:49.205Z,3.50
2019-02-24T10:58:17.736Z,3.97
2019-02-24T11:00:46.032Z,2.93
2019-02-24T11:03:14.338Z,3.53
2019-02-24T11:05:42.876Z,4.37
2019-02-24T11:08:11.173Z,3.00
2019-02-24T11:10:39.469Z,6.80
2019-02-24T11:13:07.770Z,3.50
2019-02-24T11:15:36.090Z,3.33
2019-02-24T11:18:04.378Z,4.63
2019-02-24T11:20:32.655Z,3.43
2019-02-24T11:23:00.970Z,3.60
2019-02-24T11:25:29.240Z,3.00
2019-02-24T11:27:57.610Z,2.80
2019-02-24T11:30:26.153Z,3.17
2019-02-24T11:32:54.706Z,6.33
2019-02-24T11:35:23.230Z,3.13
2019-02-24T11:37:51.527Z,4.33
2019-02-24T11:40:20.122Z,3.37
2019-02-24T11:42:48.685Z,3.50
2019-02-24T11:45:16.969Z,3.13
2019-02-24T11:47:45.582Z,3.73
2019-02-24T11:50:14.266Z,3.20
2019-02-24T11:52:42.993Z,3.20
2019-02-24T11:55:11.458Z,2.67
2019-02-24T11:57:40.150Z,3.87
2019-02-24T12:00:12.999Z,2.87
2019-02-24T12:02:41.919Z,2.83
2019-02-24T12:05:10.465Z,2.87
2019-02-24T12:07:39.009Z,3.07
2019-02-24T12:10:10.005Z,2.77
2019-02-24T12:12:38.287Z,2.83
2019-02-24T12:15:13.710Z,2.70
2019-02-24T12:17:42.055Z,3.13
2019-02-24T12:20:14.290Z,2.90
2019-02-24T12:22:42.872Z,3.20
2019-02-24T12:25:11.707Z,2.30
2019-02-24T12:27:39.995Z,2.60
2019-02-24T12:30:16.792Z,3.47
2019-02-24T12:32:45.339Z,4.53
2019-02-24T12:35:13.693Z,2.73
2019-02-24T12:37:41.994Z,3.97
2019-02-24T12:40:11.428Z,2.73
2019-02-24T12:42:39.724Z,2.90
2019-02-24T12:45:09.448Z,3.17
2019-02-24T12:47:38.000Z,2.80
2019-02-24T12:50:14.658Z,3.77
2019-02-24T12:52:43.221Z,2.83
2019-02-24T12:55:11.525Z,3.00
2019-02-24T12:57:40.462Z,2.97
2019-02-24T13:00:16.194Z,2.50
2019-02-24T13:02:44.495Z,3.27
2019-02-24T13:05:12.770Z,2.60
2019-02-24T13:07:41.316Z,2.80
2019-02-24T13:10:12.901Z,2.60
2019-02-24T13:12:41.196Z,2.50
2019-02-24T13:15:09.908Z,3.00
2019-02-24T13:17:38.252Z,2.27
2019-02-24T13:20:10.125Z,2.93
2019-02-24T13:22:38.652Z,2.30
2019-02-24T13:25:13.823Z,3.43
2019-02-24T13:27:42.364Z,2.83
2019-02-24T13:30:16.163Z,3.27
2019-02-24T13:32:44.686Z,2.40
2019-02-24T13:35:12.989Z,2.30
2019-02-24T13:37:41.284Z,2.23
2019-02-24T13:40:12.757Z,2.40
2019-02-24T13:42:41.034Z,3.27
2019-02-24T13:45:15.687Z,4.43
2019-02-24T13:47:43.975Z,2.60
2019-02-24T13:50:12.339Z,2.80
2019-02-24T13:52:40.628Z,2.33
2019-02-24T13:55:11.928Z,2.50
2019-02-24T13:57:40.210Z,2.93
2019-02-24T14:00:14.742Z,2.50
2019-02-24T14:02:43.349Z,3.13
2019-02-24T14:05:11.658Z,2.60
2019-02-24T14:07:39.941Z,2.37
2019-02-24T14:10:10.965Z,2.30
2019-02-24T14:12:39.259Z,2.40
2019-02-24T14:15:12.751Z,2.20
2019-02-24T14:17:41.349Z,2.20
2019-02-24T14:20:15.489Z,2.47
2019-02-24T14:22:44.137Z,2.40
2019-02-24T14:25:16.132Z,2.70
2019-02-24T14:27:44.431Z,5.30
2019-02-24T14:30:14.595Z,2.77
2019-02-24T14:32:44.137Z,4.20
2019-02-24T14:35:15.755Z,2.00
2019-02-24T14:37:44.052Z,2.07
2019-02-24T14:40:12.332Z,2.50
2019-02-24T14:42:40.633Z,5.03
2019-02-24T14:45:11.859Z,2.50
2019-02-24T14:47:40.178Z,3.03
2019-02-24T14:50:10.107Z,2.67
2019-02-24T14:52:38.409Z,2.50
2019-02-24T14:55:14.479Z,2.30
2019-02-24T14:57:42.848Z,2.60
2019-02-24T15:00:24.327Z,2.70
2019-02-24T15:02:52.627Z,2.70
2019-02-24T15:05:20.913Z,2.53
2019-02-24T15:07:49.525Z,5.23
2019-02-24T15:10:20.569Z,2.70
2019-02-24T15:13:03.973Z,22.97
2019-02-24T15:15:35.045Z,2.60
2019-02-24T15:18:03.348Z,2.60
2019-02-24T15:20:31.921Z,2.40
2019-02-24T15:23:00.213Z,1.97
2019-02-24T15:25:28.759Z,2.93
2019-02-24T15:27:57.304Z,2.07
2019-02-24T15:30:28.400Z,2.40
2019-02-24T15:32:56.766Z,1.73
2019-02-24T15:35:26.995Z,1.97
2019-02-24T15:37:55.592Z,2.20
2019-02-24T15:40:23.874Z,2.30
2019-02-24T15:42:52.174Z,3.00
2019-02-24T15:45:20.540Z,3.20
2019-02-24T15:47:48.893Z,5.53
2019-02-24T15:50:17.316Z,3.73
2019-02-24T15:52:45.617Z,4.00
2019-02-24T15:55:15.347Z,3.20
2019-02-24T15:57:43.637Z,3.47
2019-02-24T16:00:17.952Z,2.67
2019-02-24T16:02:46.236Z,2.60
2019-02-24T16:05:14.535Z,2.93
2019-02-24T16:07:42.916Z,2.93
2019-02-24T16:10:21.757Z,2.90
2019-02-24T16:12:50.350Z,4.13
2019-02-24T16:15:20.595Z,2.00
2019-02-24T16:17:49.122Z,3.27
2019-02-24T16:20:23.290Z,2.70
2019-02-24T16:22:51.893Z,2.93
2019-02-24T16:25:20.443Z,4.40
2019-02-24T16:27:48.723Z,2.87
2019-02-24T16:30:16.752Z,3.23
2019-02-24T16:32:45.027Z,3.17
2019-02-24T16:35:15.267Z,4.10
2019-02-24T16:37:43.558Z,3.00
2019-02-24T16:40:14.765Z,5.53
2019-02-24T16:42:43.048Z,2.93
2019-02-24T16:45:13.674Z,3.03
2019-02-24T16:47:41.957Z,6.10
2019-02-24T16:50:15.808Z,6.87
2019-02-24T16:52:44.161Z,2.70
2019-02-24T16:55:15.401Z,2.57
2019-02-24T16:57:43.679Z,3.80
2019-02-24T17:00:15.170Z,2.73
2019-02-24T17:02:43.811Z,4.50
2019-02-24T17:05:12.399Z,5.57
2019-02-24T17:07:40.701Z,4.23
2019-02-24T17:10:12.080Z,3.17
2019-02-24T17:12:40.645Z,4.60
2019-02-24T17:15:11.587Z,6.43
2019-02-24T17:17:39.890Z,3.80
2019-02-24T17:20:25.189Z,7.97
2019-02-24T17:22:53.526Z,7.73
2019-02-24T17:25:21.762Z,3.83
2019-02-24T17:27:50.329Z,5.57
2019-02-24T17:30:18.672Z,8.80
2019-02-24T17:32:46.983Z,6.97
2019-02-24T17:35:15.251Z,6.50
2019-02-24T17:37:43.555Z,5.03
2019-02-24T17:40:16.898Z,10.63
2019-02-24T17:42:45.191Z,4.00
2019-02-24T17:45:14.122Z,5.93
2019-02-24T17:47:42.665Z,10.43
2019-02-24T17:50:14.006Z,3.00
2019-02-24T17:52:42.640Z,8.60
2019-02-24T17:55:12.765Z,8.30
2019-02-24T17:57:41.077Z,8.93
2019-02-24T18:00:12.620Z,7.87
2019-02-24T18:02:41.006Z,10.40
2019-02-24T18:05:09.390Z,5.90
2019-02-24T18:07:37.687Z,7.30
2019-02-24T18:10:06.244Z,6.77
2019-02-24T18:12:34.544Z,5.70
2019-02-24T18:15:02.831Z,5.47
2019-02-24T18:17:31.381Z,7.60
2019-02-24T18:19:59.663Z,8.40
2019-02-24T18:22:27.954Z,9.07
2019-02-24T18:25:02.947Z,7.80
2019-02-24T18:27:26.280Z,10.17
2019-02-24T18:29:54.563Z,9.10
2019-02-24T18:32:22.845Z,8.63
2019-02-24T18:34:51.324Z,10.67
2019-02-24T18:37:19.839Z,8.60
2019-02-24T18:39:48.381Z,6.37
2019-02-24T18:42:16.670Z,8.70
2019-02-24T18:44:44.967Z,8.90
2019-02-24T18:47:13.245Z,8.53
2019-02-24T18:49:41.796Z,7.93
2019-02-24T18:52:10.077Z,8.37
2019-02-24T18:54:38.375Z,11.07
2019-02-24T18:57:06.659Z,13.03
2019-02-24T18:59:34.959Z,12.67
2019-02-24T19:02:03.492Z,11.00
2019-02-24T19:04:32.042Z,8.40
2019-02-24T19:07:00.597Z,9.40
2019-02-24T19:09:28.881Z,7.47
2019-02-24T19:11:57.183Z,6.77
2019-02-24T19:14:25.475Z,6.50
2019-02-24T19:16:53.770Z,9.47
2019-02-24T19:19:25.532Z,8.07
2019-02-24T19:21:52.132Z,7.87
2019-02-24T19:24:20.407Z,6.23
2019-02-24T19:26:48.704Z,6.77
2019-02-24T19:29:17.034Z,7.40
2019-02-24T19:31:46.054Z,6.60
2019-02-24T19:34:14.336Z,6.97
2019-02-24T19:36:42.628Z,7.27
2019-02-24T19:39:13.586Z,6.10
2019-02-24T19:41:41.895Z,6.27
2019-02-24T19:44:10.199Z,6.67
2019-02-24T19:46:38.490Z,6.27
2019-02-24T19:49:06.854Z,6.73
2019-02-24T19:51:35.407Z,7.93
2019-02-24T19:54:03.962Z,8.27
2019-02-24T19:56:32.240Z,10.80
2019-02-24T19:59:06.236Z,10.80
2019-02-24T20:01:34.512Z,11.73
2019-02-24T20:04:02.889Z,12.97
2019-02-24T20:06:31.169Z,12.67
2019-02-24T20:08:59.709Z,13.10
2019-02-24T20:11:27.999Z,12.40
2019-02-24T20:13:56.310Z,10.80
2019-02-24T20:16:24.827Z,8.90
2019-02-24T20:18:53.414Z,10.60
2019-02-24T20:21:21.998Z,11.37
2019-02-24T20:23:50.416Z,10.20
2019-02-24T20:26:18.694Z,8.90
2019-02-24T20:28:47.218Z,9.63
2019-02-24T20:31:15.603Z,9.20
2019-02-24T20:33:44.207Z,9.50
2019-02-24T20:36:12.507Z,12.07
2019-02-24T20:38:40.860Z,11.67
2019-02-24T20:41:09.449Z,10.07
2019-02-24T20:43:38.035Z,14.03
2019-02-24T20:46:06.620Z,11.67
2019-02-24T20:48:35.404Z,9.83
2019-02-24T20:51:04.687Z,9.20
2019-02-24T20:53:33.283Z,9.13
2019-02-24T20:56:01.602Z,12.70
2019-02-24T20:58:29.882Z,8.73
2019-02-24T21:00:58.159Z,11.20
2019-02-24T21:03:26.571Z,8.17
2019-02-24T21:05:54.800Z,8.60
2019-02-24T21:08:23.087Z,8.80
2019-02-24T21:10:51.727Z,8.33
2019-02-24T21:13:20.030Z,11.87
2019-02-24T21:15:48.595Z,11.93
2019-02-24T21:18:16.894Z,13.33
2019-02-24T21:20:46.987Z,12.47
2019-02-24T21:23:15.286Z,11.37
2019-02-24T21:25:43.568Z,14.87
2019-02-24T21:28:11.862Z,11.93
2019-02-24T21:30:40.134Z,9.83
2019-02-24T21:33:08.432Z,11.93
2019-02-24T21:35:36.718Z,14.23
2019-02-24T21:38:04.991Z,9.80
2019-02-24T21:40:33.292Z,11.50
2019-02-24T21:43:01.586Z,10.23
2019-02-24T21:45:29.883Z,8.90
2019-02-24T21:47:58.218Z,10.27
2019-02-24T21:50:26.559Z,9.80
2019-02-24T21:52:55.089Z,10.00
2019-02-24T21:55:23.379Z,10.60
2019-02-24T21:57:51.658Z,9.50
2019-02-24T22:00:24.428Z,10.47
2019-02-24T22:02:52.775Z,10.37
2019-02-24T22:05:21.072Z,10.13
2019-02-24T22:07:49.351Z,11.43
2019-02-24T22:10:17.944Z,13.77
2019-02-24T22:12:46.230Z,11.53
2019-02-24T22:15:20.229Z,8.27
2019-02-24T22:17:48.812Z,9.57
2019-02-24T22:20:17.509Z,7.17
2019-02-24T22:22:45.960Z,7.50
2019-02-24T22:25:14.937Z,6.87
2019-02-24T22:27:43.288Z,9.80
2019-02-24T22:30:14.573Z,7.30
2019-02-24T22:32:42.854Z,10.27
2019-02-24T22:35:11.458Z,10.97
2019-02-24T22:37:40.040Z,8.77
2019-02-24T22:40:13.317Z,11.13
2019-02-24T22:42:41.591Z,10.50
2019-02-24T22:45:22.500Z,8.60
2019-02-24T22:47:51.696Z,6.70
2019-02-24T22:50:19.984Z,8.77
2019-02-24T22:52:48.647Z,8.63
2019-02-24T22:55:18.730Z,7.60
2019-02-24T22:57:47.002Z,6.80
2019-02-24T23:00:18.773Z,8.13
2019-02-24T23:02:47.091Z,7.43
2019-02-24T23:05:15.620Z,10.27
2019-02-24T23:07:44.240Z,18.13
2019-02-24T23:10:13.034Z,25.70
2019-02-24T23:12:41.398Z,22.33
2019-02-24T23:15:09.751Z,20.70
2019-02-24T23:17:38.372Z,20.63
2019-02-24T23:20:08.809Z,19.30
2019-02-24T23:22:37.112Z,18.93
2019-02-24T23:25:05.829Z,17.33
2019-02-24T23:27:35.661Z,18.30
2019-02-24T23:30:06.249Z,21.47
2019-02-24T23:32:34.894Z,25.03
2019-02-24T23:35:03.648Z,17.63
2019-02-24T23:37:32.374Z,25.33
2019-02-24T23:40:00.673Z,25.13
2019-02-24T23:42:28.986Z,22.03
2019-02-24T23:44:57.316Z,16.60
2019-02-24T23:47:25.879Z,14.40
2019-02-24T23:49:54.567Z,10.10
2019-02-24T23:52:22.873Z,15.37
2019-02-24T23:54:51.161Z,9.77
2019-02-24T23:57:19.444Z,6.63
2019-02-24T23:59:47.734Z,5.80
